createdAt,value
2019-01-11T00:01:27.031Z,6.22
2019-01-11T00:03:55.225Z,6.67
2019-01-11T00:06:23.539Z,7.37
2019-01-11T00:08:51.734Z,6.47
2019-01-11T00:11:19.982Z,6.53
2019-01-11T00:13:48.182Z,6.42
2019-01-11T00:16:16.434Z,6.85
2019-01-11T00:18:44.698Z,6.90
2019-01-11T00:21:12.962Z,6.80
2019-01-11T00:23:41.191Z,6.03
2019-01-11T00:26:09.450Z,6.60
2019-01-11T00:28:37.745Z,6.00
2019-01-11T00:31:05.950Z,5.70
2019-01-11T00:33:34.225Z,6.17
2019-01-11T00:36:02.465Z,6.53
2019-01-11T00:38:30.728Z,5.83
2019-01-11T00:40:59.018Z,6.40
2019-01-11T00:43:27.289Z,5.75
2019-01-11T00:45:55.504Z,6.05
2019-01-11T00:48:23.714Z,5.60
2019-01-11T00:50:51.961Z,5.87
2019-01-11T00:53:20.351Z,8.05
2019-01-11T00:55:48.657Z,6.12
2019-01-11T00:58:16.883Z,5.40
2019-01-11T01:00:45.210Z,5.97
2019-01-11T01:03:13.428Z,5.92
2019-01-11T01:05:41.684Z,5.97
2019-01-11T01:08:09.989Z,7.33
2019-01-11T01:10:38.250Z,6.03
2019-01-11T01:13:06.522Z,4.87
2019-01-11T01:15:34.780Z,4.12
2019-01-11T01:18:03.049Z,5.13
2019-01-11T01:20:32.791Z,4.85
2019-01-11T01:23:01.076Z,4.12
2019-01-11T01:25:29.276Z,5.03
2019-01-11T01:27:57.564Z,4.70
2019-01-11T01:30:25.882Z,4.70
2019-01-11T01:32:54.120Z,4.28
2019-01-11T01:35:22.370Z,4.50
2019-01-11T01:37:50.623Z,4.70
2019-01-11T01:40:18.831Z,4.80
2019-01-11T01:42:47.057Z,5.53
2019-01-11T01:45:15.931Z,5.22
2019-01-11T01:47:44.179Z,4.17
2019-01-11T01:50:12.488Z,4.03
2019-01-11T01:52:40.750Z,4.22
2019-01-11T01:55:12.666Z,4.85
2019-01-11T01:57:40.856Z,4.53
2019-01-11T02:00:10.403Z,4.50
2019-01-11T02:02:38.617Z,4.78
2019-01-11T02:05:07.229Z,4.73
2019-01-11T02:07:35.529Z,4.50
2019-01-11T02:10:07.076Z,4.30
2019-01-11T02:12:35.303Z,5.00
2019-01-11T02:15:04.030Z,4.55
2019-01-11T02:17:33.464Z,5.03
2019-01-11T02:20:01.784Z,5.55
2019-01-11T02:22:30.002Z,5.20
2019-01-11T02:24:58.316Z,4.83
2019-01-11T02:27:26.556Z,5.97
2019-01-11T02:29:54.801Z,5.80
2019-01-11T02:32:23.195Z,5.63
2019-01-11T02:34:51.461Z,4.73
2019-01-11T02:37:19.753Z,4.60
2019-01-11T02:39:48.031Z,5.73
2019-01-11T02:42:16.322Z,5.60
2019-01-11T02:44:44.549Z,4.93
2019-01-11T02:47:13.093Z,4.80
2019-01-11T02:49:43.423Z,4.25
2019-01-11T02:52:11.790Z,4.35
2019-01-11T02:54:40.002Z,5.33
2019-01-11T02:57:08.235Z,5.67
2019-01-11T02:59:36.451Z,4.62
2019-01-11T03:02:04.893Z,5.15
2019-01-11T03:04:33.196Z,4.47
2019-01-11T03:07:01.572Z,5.10
2019-01-11T03:09:29.808Z,5.80
2019-01-11T03:11:58.057Z,6.70
2019-01-11T03:14:26.328Z,5.87
2019-01-11T03:16:54.549Z,5.25
2019-01-11T03:19:22.806Z,5.17
2019-01-11T03:21:51.021Z,5.47
2019-01-11T03:24:19.225Z,5.27
2019-01-11T03:26:47.470Z,5.43
2019-01-11T03:29:15.983Z,5.30
2019-01-11T03:31:44.230Z,5.92
2019-01-11T03:34:12.447Z,6.13
2019-01-11T03:36:40.772Z,5.92
2019-01-11T03:39:09.993Z,5.25
2019-01-11T03:42:06.755Z,6.55
2019-01-11T03:44:34.976Z,6.25
2019-01-11T03:47:03.206Z,7.97
2019-01-11T03:49:31.518Z,6.42
2019-01-11T03:51:59.753Z,7.10
2019-01-11T03:54:27.968Z,8.40
2019-01-11T03:56:56.232Z,6.72
2019-01-11T03:59:24.437Z,6.40
2019-01-11T04:01:52.726Z,6.42
2019-01-11T04:04:20.917Z,7.47
2019-01-11T04:06:49.158Z,6.67
2019-01-11T04:09:17.417Z,6.73
2019-01-11T04:11:45.715Z,7.60
2019-01-11T04:14:13.936Z,7.65
2019-01-11T04:16:42.155Z,6.90
2019-01-11T04:19:13.863Z,7.70
2019-01-11T04:21:46.021Z,9.50
2019-01-11T04:24:14.262Z,7.12
2019-01-11T04:26:42.516Z,8.23
2019-01-11T04:29:10.705Z,8.00
2019-01-11T04:31:38.996Z,8.45
2019-01-11T04:34:07.341Z,9.50
2019-01-11T04:36:35.584Z,8.97
2019-01-11T04:39:06.052Z,9.25
2019-01-11T04:41:34.322Z,9.10
2019-01-11T04:44:02.630Z,7.83
2019-01-11T04:46:30.858Z,10.30
2019-01-11T04:48:59.061Z,9.65
2019-01-11T04:51:27.310Z,9.45
2019-01-11T04:53:55.539Z,8.60
2019-01-11T04:56:23.798Z,9.55
2019-01-11T04:58:52.070Z,9.87
2019-01-11T05:01:20.393Z,8.73
2019-01-11T05:03:48.625Z,9.50
2019-01-11T05:06:16.871Z,9.65
2019-01-11T05:08:45.209Z,11.80
2019-01-11T05:11:14.715Z,9.90
2019-01-11T05:13:45.585Z,12.03
2019-01-11T05:16:13.898Z,11.20
2019-01-11T05:18:42.228Z,12.82
2019-01-11T05:21:10.442Z,11.22
2019-01-11T05:23:38.720Z,10.87
2019-01-11T05:26:07.024Z,11.33
2019-01-11T05:28:35.295Z,12.85
2019-01-11T05:31:03.528Z,11.95
2019-01-11T05:33:31.857Z,12.47
2019-01-11T05:36:00.134Z,12.43
2019-01-11T05:38:28.357Z,13.97
2019-01-11T05:40:56.673Z,12.15
2019-01-11T05:43:24.954Z,13.72
2019-01-11T05:45:53.175Z,12.15
2019-01-11T05:48:21.485Z,13.17
2019-01-11T05:50:50.082Z,15.35
2019-01-11T05:53:18.314Z,13.53
2019-01-11T05:55:50.929Z,14.83
2019-01-11T05:58:37.680Z,14.18
2019-01-11T06:01:05.909Z,14.07
2019-01-11T06:03:34.197Z,15.18
2019-01-11T06:06:02.501Z,14.68
2019-01-11T06:08:31.495Z,17.30
2019-01-11T06:10:59.768Z,16.17
2019-01-11T06:13:28.021Z,13.55
2019-01-11T06:15:56.251Z,15.70
2019-01-11T06:18:24.454Z,17.25
2019-01-11T06:20:52.813Z,16.10
2019-01-11T06:23:21.060Z,17.62
2019-01-11T06:25:49.366Z,16.90
2019-01-11T06:28:18.107Z,19.40
2019-01-11T06:30:46.360Z,16.80
2019-01-11T06:33:15.636Z,16.65
2019-01-11T06:35:43.952Z,17.52
2019-01-11T06:38:12.170Z,15.28
2019-01-11T06:40:40.399Z,16.73
2019-01-11T06:43:08.739Z,17.05
2019-01-11T06:45:36.973Z,14.50
2019-01-11T06:48:06.852Z,15.18
2019-01-11T06:50:36.601Z,13.87
2019-01-11T06:53:04.969Z,13.38
2019-01-11T06:55:33.224Z,16.82
2019-01-11T06:58:01.632Z,13.93
2019-01-11T07:00:29.874Z,15.85
2019-01-11T07:02:58.133Z,13.35
2019-01-11T07:05:26.617Z,15.32
2019-01-11T07:07:54.857Z,16.83
2019-01-11T07:10:23.117Z,16.77
2019-01-11T07:12:51.348Z,17.07
2019-01-11T07:15:19.671Z,20.35
2019-01-11T07:17:48.014Z,17.40
2019-01-11T07:20:16.304Z,17.87
2019-01-11T07:22:44.518Z,16.27
2019-01-11T07:25:12.941Z,16.32
2019-01-11T07:27:50.307Z,18.67
2019-01-11T07:30:18.977Z,18.30
2019-01-11T07:32:47.303Z,18.98
2019-01-11T07:35:15.566Z,17.87
2019-01-11T07:37:43.852Z,17.50
2019-01-11T07:40:12.088Z,19.52
2019-01-11T07:42:40.352Z,13.88
2019-01-11T07:45:09.149Z,18.62
2019-01-11T07:47:37.526Z,19.73
2019-01-11T07:50:06.106Z,20.08
2019-01-11T07:52:34.435Z,14.18
2019-01-11T07:55:02.659Z,17.65
2019-01-11T07:57:31.107Z,15.43
2019-01-11T07:59:59.420Z,13.10
2019-01-11T08:02:28.778Z,14.73
2019-01-11T08:04:57.081Z,13.38
2019-01-11T08:07:25.356Z,17.48
2019-01-11T08:09:53.669Z,13.87
2019-01-11T08:12:21.957Z,13.87
2019-01-11T08:14:50.254Z,17.32
2019-01-11T08:17:18.500Z,13.20
2019-01-11T08:19:47.778Z,14.23
2019-01-11T08:22:32.224Z,16.03
2019-01-11T08:25:03.186Z,13.28
2019-01-11T08:27:31.583Z,10.72
2019-01-11T08:29:59.911Z,16.55
2019-01-11T08:32:28.168Z,11.70
2019-01-11T08:34:56.428Z,11.73
2019-01-11T08:37:24.683Z,11.70
2019-01-11T08:39:52.919Z,11.03
2019-01-11T08:42:21.214Z,13.13
2019-01-11T08:44:49.518Z,10.25
2019-01-11T08:47:17.862Z,7.57
2019-01-11T08:49:46.137Z,8.65
2019-01-11T08:52:14.445Z,7.85
2019-01-11T08:54:42.750Z,6.12
2019-01-11T08:57:11.006Z,9.60
2019-01-11T08:59:39.344Z,8.20
2019-01-11T09:02:07.588Z,9.30
2019-01-11T09:04:35.959Z,6.28
2019-01-11T09:07:04.350Z,8.53
2019-01-11T09:09:32.640Z,7.23
2019-01-11T09:12:00.993Z,10.38
2019-01-11T09:14:48.165Z,7.12
2019-01-11T09:17:17.837Z,5.80
2019-01-11T09:19:46.152Z,5.95
2019-01-11T09:22:14.479Z,6.28
2019-01-11T09:24:44.115Z,5.40
2019-01-11T09:27:12.448Z,6.50
2019-01-11T09:29:40.734Z,5.10
2019-01-11T09:32:09.159Z,6.97
2019-01-11T09:34:37.440Z,8.68
2019-01-11T09:37:05.778Z,5.25
2019-01-11T09:39:34.054Z,6.37
2019-01-11T09:42:02.315Z,5.47
2019-01-11T09:44:30.568Z,7.37
2019-01-11T09:46:58.827Z,5.00
2019-01-11T09:49:28.102Z,5.33
2019-01-11T09:51:56.339Z,4.90
2019-01-11T09:54:24.611Z,5.08
2019-01-11T09:56:52.916Z,5.90
2019-01-11T09:59:21.339Z,6.08
2019-01-11T10:02:01.863Z,3.40
2019-01-11T10:04:34.135Z,3.27
2019-01-11T10:07:19.532Z,4.85
2019-01-11T10:09:47.841Z,2.98
2019-01-11T10:12:16.160Z,4.05
2019-01-11T10:14:44.469Z,2.77
2019-01-11T10:17:12.780Z,2.98
2019-01-11T10:19:41.018Z,3.17
2019-01-11T10:22:09.336Z,3.12
2019-01-11T10:24:37.576Z,3.15
2019-01-11T10:27:05.987Z,3.05
2019-01-11T10:29:34.303Z,2.23
2019-01-11T10:32:02.608Z,4.50
2019-01-11T10:34:30.883Z,2.75
2019-01-11T10:36:59.253Z,3.05
2019-01-11T10:39:27.525Z,2.40
2019-01-11T10:41:55.753Z,3.90
2019-01-11T10:44:24.043Z,6.10
2019-01-11T10:46:52.317Z,1.80
2019-01-11T10:49:20.594Z,2.62
2019-01-11T10:51:48.831Z,2.22
2019-01-11T10:54:39.140Z,4.85
2019-01-11T10:57:07.432Z,1.87
2019-01-11T10:59:35.745Z,1.90
2019-01-11T11:02:04.219Z,1.40
2019-01-11T11:04:32.472Z,3.33
2019-01-11T11:07:00.697Z,2.02
2019-01-11T11:09:29.029Z,2.20
2019-01-11T11:11:57.458Z,4.00
2019-01-11T11:14:25.742Z,2.30
2019-01-11T11:16:54.245Z,2.15
2019-01-11T11:19:22.603Z,1.82
2019-01-11T11:21:50.949Z,2.27
2019-01-11T11:24:19.276Z,1.52
2019-01-11T11:26:47.586Z,3.08
2019-01-11T11:29:15.851Z,4.03
2019-01-11T11:31:44.329Z,3.50
2019-01-11T11:34:12.607Z,1.62
2019-01-11T11:36:40.830Z,3.13
2019-01-11T11:39:09.968Z,5.17
2019-01-11T11:41:38.222Z,2.95
2019-01-11T11:44:06.560Z,2.27
2019-01-11T11:46:34.889Z,3.92
2019-01-11T11:49:03.225Z,2.92
2019-01-11T11:51:31.483Z,2.35
2019-01-11T11:53:59.715Z,2.95
2019-01-11T11:56:28.056Z,4.10
2019-01-11T11:58:56.304Z,2.73
2019-01-11T12:01:24.606Z,2.02
2019-01-11T12:03:52.856Z,2.00
2019-01-11T12:06:21.159Z,2.23
2019-01-11T12:08:49.625Z,2.87
2019-01-11T12:11:17.875Z,2.62
2019-01-11T12:13:46.106Z,3.02
2019-01-11T12:16:14.387Z,4.22
2019-01-11T12:18:42.599Z,2.90
2019-01-11T12:21:11.128Z,3.47
2019-01-11T12:23:39.448Z,2.92
2019-01-11T12:26:07.995Z,3.22
2019-01-11T12:28:36.276Z,2.27
2019-01-11T12:31:04.540Z,2.00
2019-01-11T12:33:32.922Z,4.62
2019-01-11T12:36:01.171Z,1.92
2019-01-11T12:38:29.438Z,1.57
2019-01-11T12:40:57.680Z,1.90
2019-01-11T12:43:26.028Z,3.60
2019-01-11T12:45:54.252Z,5.28
2019-01-11T12:48:22.603Z,3.40
2019-01-11T12:50:50.833Z,2.33
2019-01-11T12:53:19.133Z,3.30
2019-01-11T12:55:47.428Z,2.98
2019-01-11T12:58:15.742Z,2.45
2019-01-11T13:00:43.995Z,4.30
2019-01-11T13:03:12.243Z,2.90
2019-01-11T13:05:40.648Z,2.53
2019-01-11T13:08:08.999Z,4.80
2019-01-11T13:10:37.276Z,5.30
2019-01-11T13:13:05.502Z,3.67
2019-01-11T13:15:33.853Z,5.40
2019-01-11T13:18:02.135Z,6.85
2019-01-11T13:20:30.318Z,4.27
2019-01-11T13:22:58.604Z,4.65
2019-01-11T13:25:32.100Z,4.27
2019-01-11T13:27:56.985Z,3.95
2019-01-11T13:30:25.197Z,8.28
2019-01-11T13:32:53.499Z,3.45
2019-01-11T13:35:24.098Z,4.13
2019-01-11T13:37:55.655Z,5.87
2019-01-11T13:40:24.625Z,5.65
2019-01-11T13:42:53.208Z,6.80
2019-01-11T13:45:22.487Z,8.20
2019-01-11T13:47:50.984Z,7.33
2019-01-11T13:50:30.633Z,5.33
2019-01-11T13:52:58.939Z,5.42
2019-01-11T13:55:27.206Z,6.62
2019-01-11T13:57:55.433Z,8.85
2019-01-11T14:00:25.583Z,4.27
2019-01-11T14:02:53.889Z,6.37
2019-01-11T14:05:22.230Z,9.40
2019-01-11T14:07:50.538Z,6.40
2019-01-11T14:10:18.909Z,6.92
2019-01-11T14:12:47.211Z,8.63
2019-01-11T14:15:15.498Z,10.65
2019-01-11T14:17:43.741Z,7.10
2019-01-11T14:20:14.408Z,8.58
2019-01-11T14:22:43.812Z,8.63
2019-01-11T14:25:12.167Z,7.60
2019-01-11T14:27:40.592Z,11.55
2019-01-11T14:30:08.919Z,9.85
2019-01-11T14:32:37.196Z,8.63
2019-01-11T14:35:06.152Z,8.57
2019-01-11T14:37:34.523Z,7.40
2019-01-11T14:40:02.888Z,13.25
2019-01-11T14:42:31.255Z,11.35
2019-01-11T14:44:59.511Z,9.05
2019-01-11T14:47:27.841Z,10.30
2019-01-11T14:49:56.270Z,9.03
2019-01-11T14:52:24.514Z,11.80
2019-01-11T14:54:53.763Z,12.80
2019-01-11T14:57:22.078Z,13.68
2019-01-11T14:59:50.403Z,10.53
2019-01-11T15:02:18.724Z,11.45
2019-01-11T15:04:46.988Z,10.72
2019-01-11T15:07:15.278Z,13.72
2019-01-11T15:09:43.599Z,13.83
2019-01-11T15:12:11.867Z,13.13
2019-01-11T15:14:40.207Z,15.37
2019-01-11T15:17:08.462Z,13.30
2019-01-11T15:19:36.792Z,15.53
2019-01-11T15:22:05.957Z,11.43
2019-01-11T15:24:34.321Z,13.50
2019-01-11T15:27:02.572Z,16.00
2019-01-11T15:29:30.877Z,16.10
2019-01-11T15:31:59.112Z,11.55
2019-01-11T15:34:27.378Z,15.38
2019-01-11T15:36:56.591Z,21.48
2019-01-11T15:39:24.852Z,16.37
2019-01-11T15:41:53.166Z,17.02
2019-01-11T15:44:21.416Z,12.53
2019-01-11T15:46:49.723Z,17.70
2019-01-11T15:49:18.046Z,12.65
2019-01-11T15:51:46.417Z,18.87
2019-01-11T15:54:14.665Z,13.78
2019-01-11T15:56:42.899Z,10.05
2019-01-11T15:59:11.175Z,16.77
2019-01-11T16:01:39.436Z,20.97
2019-01-11T16:04:09.023Z,14.03
2019-01-11T16:06:39.313Z,16.70
2019-01-11T16:09:12.117Z,19.10
2019-01-11T16:11:44.967Z,17.67
2019-01-11T16:14:21.771Z,19.37
2019-01-11T16:16:52.556Z,12.40
2019-01-11T16:19:20.878Z,15.03
2019-01-11T16:21:49.225Z,21.48
2019-01-11T16:24:17.548Z,15.43
2019-01-11T16:26:45.834Z,18.83
2019-01-11T16:29:14.122Z,17.87
2019-01-11T16:31:42.408Z,22.13
2019-01-11T16:34:10.752Z,20.97
2019-01-11T16:36:38.991Z,19.33
2019-01-11T16:39:07.971Z,15.87
2019-01-11T16:41:36.234Z,17.10
2019-01-11T16:44:04.945Z,14.55
2019-01-11T16:46:33.221Z,19.32
2019-01-11T16:49:01.615Z,16.50
2019-01-11T16:51:29.945Z,16.85
2019-01-11T16:53:58.202Z,17.67
2019-01-11T16:56:26.460Z,22.50
2019-01-11T16:58:54.779Z,20.37
2019-01-11T17:01:23.004Z,22.10
2019-01-11T17:03:51.370Z,15.63
2019-01-11T17:06:19.724Z,20.08
2019-01-11T17:08:48.019Z,20.87
2019-01-11T17:11:16.313Z,19.80
2019-01-11T17:13:44.573Z,25.20
2019-01-11T17:16:12.850Z,20.00
2019-01-11T17:18:41.122Z,25.30
2019-01-11T17:21:09.433Z,16.20
2019-01-11T17:23:37.739Z,22.52
2019-01-11T17:26:05.977Z,26.77
2019-01-11T17:28:34.426Z,17.87
2019-01-11T17:31:02.652Z,22.77
2019-01-11T17:33:30.944Z,26.30
2019-01-11T17:35:59.205Z,23.05
2019-01-11T17:38:27.524Z,22.10
2019-01-11T17:40:55.834Z,19.33
2019-01-11T17:43:24.195Z,23.85
2019-01-11T17:45:52.510Z,29.40
2019-01-11T17:48:20.803Z,25.55
2019-01-11T17:50:49.084Z,23.18
2019-01-11T17:53:17.491Z,18.15
2019-01-11T17:55:45.728Z,22.07
2019-01-11T17:58:14.013Z,23.07
2019-01-11T18:00:43.144Z,28.20
2019-01-11T18:03:11.406Z,19.83
2019-01-11T18:05:39.815Z,33.25
2019-01-11T18:08:08.183Z,29.40
2019-01-11T18:10:37.603Z,31.85
2019-01-11T18:13:05.904Z,23.07
2019-01-11T18:15:34.181Z,24.43
2019-01-11T18:18:02.566Z,22.65
2019-01-11T18:20:30.829Z,22.73
2019-01-11T18:22:59.112Z,22.67
2019-01-11T18:25:27.416Z,26.97
2019-01-11T18:27:55.785Z,27.13
2019-01-11T18:30:24.115Z,22.80
2019-01-11T18:32:53.299Z,21.70
2019-01-11T18:35:21.555Z,21.00
2019-01-11T18:37:49.855Z,21.73
2019-01-11T18:40:20.009Z,26.80
2019-01-11T18:42:48.356Z,20.15
2019-01-11T18:45:16.572Z,19.97
2019-01-11T18:47:45.946Z,24.50
2019-01-11T18:50:15.449Z,23.42
2019-01-11T18:52:43.836Z,24.23
2019-01-11T18:55:12.088Z,20.90
2019-01-11T18:57:40.385Z,21.53
2019-01-11T19:00:10.586Z,29.40
2019-01-11T19:02:38.959Z,21.17
2019-01-11T19:05:08.301Z,26.07
2019-01-11T19:07:36.705Z,20.60
2019-01-11T19:10:05.870Z,23.38
2019-01-11T19:12:34.230Z,28.53
2019-01-11T19:15:02.498Z,24.73
2019-01-11T19:17:31.828Z,19.85
2019-01-11T19:20:00.232Z,30.80
2019-01-11T19:22:28.797Z,19.10
2019-01-11T19:24:57.103Z,29.52
2019-01-11T19:27:26.469Z,24.30
2019-01-11T19:29:54.762Z,24.87
2019-01-11T19:32:23.163Z,23.90
2019-01-11T19:34:51.494Z,24.00
2019-01-11T19:37:19.731Z,25.47
2019-01-11T19:39:49.463Z,21.30
2019-01-11T19:42:17.751Z,25.50
2019-01-11T19:44:46.118Z,22.90
2019-01-11T19:47:14.443Z,20.92
2019-01-11T19:49:42.740Z,23.40
2019-01-11T19:52:11.058Z,23.77
2019-01-11T19:54:39.445Z,31.05
2019-01-11T19:57:07.815Z,15.55
2019-01-11T19:59:36.285Z,26.50
2019-01-11T20:02:04.583Z,25.10
2019-01-11T20:04:33.786Z,23.30
2019-01-11T20:07:02.181Z,21.82
2019-01-11T20:09:30.537Z,21.93
2019-01-11T20:11:58.889Z,25.80
2019-01-11T20:14:27.241Z,24.00
2019-01-11T20:16:55.573Z,17.05
2019-01-11T20:19:23.890Z,27.20
2019-01-11T20:21:52.232Z,20.37
2019-01-11T20:24:20.529Z,30.55
2019-01-11T20:26:48.842Z,19.45
2019-01-11T20:29:17.126Z,31.27
2019-01-11T20:31:45.449Z,20.23
2019-01-11T20:34:13.839Z,23.95
2019-01-11T20:36:45.211Z,24.50
2019-01-11T20:39:13.486Z,23.60
2019-01-11T20:41:41.704Z,26.10
2019-01-11T20:44:09.971Z,18.32
2019-01-11T20:46:38.207Z,20.75
2019-01-11T20:49:06.455Z,22.03
2019-01-11T20:51:34.795Z,26.45
2019-01-11T20:54:03.051Z,23.33
2019-01-11T20:56:31.811Z,24.10
2019-01-11T20:59:00.035Z,24.80
2019-01-11T21:01:28.373Z,21.37
2019-01-11T21:03:56.596Z,23.62
2019-01-11T21:06:24.857Z,20.55
2019-01-11T21:08:53.263Z,19.30
2019-01-11T21:11:21.495Z,19.90
2019-01-11T21:13:49.779Z,32.63
2019-01-11T21:16:18.041Z,25.67
2019-01-11T21:18:46.287Z,17.57
2019-01-11T21:21:14.696Z,21.30
2019-01-11T21:23:48.596Z,15.23
2019-01-11T21:26:13.091Z,21.83
2019-01-11T21:28:41.354Z,19.03
2019-01-11T21:31:09.716Z,20.87
2019-01-11T21:33:37.945Z,21.90
2019-01-11T21:36:06.239Z,20.43
2019-01-11T21:38:34.541Z,15.53
2019-01-11T21:41:02.777Z,20.52
2019-01-11T21:43:31.129Z,20.80
2019-01-11T21:46:03.379Z,30.48
2019-01-11T21:48:29.453Z,24.47
2019-01-11T21:50:57.754Z,25.17
2019-01-11T21:53:26.205Z,21.70
2019-01-11T21:55:54.442Z,24.52
2019-01-11T21:58:23.393Z,17.20
2019-01-11T22:00:52.329Z,19.37
2019-01-11T22:03:21.345Z,19.42
2019-01-11T22:05:49.794Z,20.52
2019-01-11T22:08:18.171Z,19.77
2019-01-11T22:10:46.516Z,19.03
2019-01-11T22:13:16.198Z,21.47
2019-01-11T22:15:44.541Z,17.70
2019-01-11T22:18:12.854Z,18.07
2019-01-11T22:20:42.223Z,19.73
2019-01-11T22:23:10.556Z,19.42
2019-01-11T22:25:38.828Z,21.75
2019-01-11T22:28:07.135Z,23.25
2019-01-11T22:30:35.506Z,15.87
2019-01-11T22:33:04.455Z,21.25
2019-01-11T22:35:32.771Z,23.87
2019-01-11T22:38:01.020Z,25.47
2019-01-11T22:40:29.297Z,18.32
2019-01-11T22:42:58.236Z,19.13
2019-01-11T22:45:26.499Z,26.35
2019-01-11T22:47:54.766Z,19.82
2019-01-11T22:50:23.108Z,17.53
2019-01-11T22:52:52.367Z,17.40
2019-01-11T22:55:20.945Z,20.00
2019-01-11T22:57:49.243Z,15.53
2019-01-11T23:00:46.707Z,21.17
2019-01-11T23:03:16.861Z,19.27
2019-01-11T23:05:45.355Z,21.55
2019-01-11T23:08:15.438Z,20.07
2019-01-11T23:10:47.193Z,24.00
2019-01-11T23:13:16.089Z,18.47
2019-01-11T23:15:52.311Z,19.33
2019-01-11T23:18:21.837Z,19.60
2019-01-11T23:20:51.252Z,20.10
2019-01-11T23:23:19.551Z,20.60
2019-01-11T23:25:47.829Z,17.07
2019-01-11T23:28:17.171Z,19.27
2019-01-11T23:30:45.410Z,16.73
2019-01-11T23:33:13.693Z,21.13
2019-01-11T23:35:42.024Z,20.82
2019-01-11T23:38:10.266Z,21.03
2019-01-11T23:40:38.573Z,19.07
2019-01-11T23:43:06.823Z,15.43
2019-01-11T23:45:35.158Z,16.97
2019-01-11T23:48:03.637Z,19.70
2019-01-11T23:50:31.867Z,18.75
2019-01-11T23:53:02.467Z,13.23
2019-01-11T23:55:30.698Z,19.67
2019-01-11T23:57:58.989Z,22.00
